Time;durP1;ratioP1;P1;durP2;ratioP2;P2;SDS_P1;SDS_P2;PMS_P1;PMS_P2;Temp;Humidity;BMP_temperature;BMP_pressure;BME280_temperature;BME280_humidity;BME280_pressure;Samples;Min_cycle;Max_cycle;Signal;HPM_P1;HPM_P2
2024/01/13 00:01:03;;;;;;;69.10;61.50;;;1.20;99.90;;;;;;5033801;28;20033;-81
2024/01/13 00:03:29;;;;;;;124.60;114.17;;;1.20;99.90;;;;;;5052860;28;20032;-80
2024/01/13 00:05:55;;;;;;;80.43;72.70;;;1.30;99.90;;;;;;5046693;28;20506;-81
2024/01/13 00:08:21;;;;;;;93.33;85.23;;;1.30;99.90;;;;;;5033412;28;20034;-81
2024/01/13 00:10:47;;;;;;;81.60;73.23;;;1.30;99.90;;;;;;5033029;28;20021;-81
2024/01/13 00:13:13;;;;;;;82.40;74.47;;;1.30;99.90;;;;;;5033261;28;20029;-80
2024/01/13 00:15:39;;;;;;;116.30;106.93;;;1.30;99.90;;;;;;5030969;28;20048;-80
2024/01/13 00:18:06;;;;;;;93.93;87.47;;;1.30;99.90;;;;;;5044920;28;20044;-81
2024/01/13 00:20:32;;;;;;;80.23;72.63;;;1.20;99.90;;;;;;5049242;28;20053;-80
2024/01/13 00:22:58;;;;;;;213.87;199.63;;;1.20;99.90;;;;;;5032937;28;20030;-80
2024/01/13 00:25:24;;;;;;;165.40;153.27;;;1.20;99.90;;;;;;5032167;28;20045;-81
2024/01/13 00:27:50;;;;;;;123.47;115.70;;;1.20;99.90;;;;;;5033017;28;20025;-80
2024/01/13 00:30:16;;;;;;;84.57;76.87;;;1.20;99.90;;;;;;5032157;28;20033;-81
2024/01/13 00:32:43;;;;;;;99.70;93.40;;;1.20;99.90;;;;;;5049497;28;20033;-80
2024/01/13 00:35:09;;;;;;;155.60;144.90;;;1.20;99.90;;;;;;5051514;28;20392;-82
2024/01/13 00:37:35;;;;;;;133.23;125.27;;;1.10;99.90;;;;;;5052517;28;20029;-80
2024/01/13 00:40:01;;;;;;;159.07;147.93;;;1.00;99.90;;;;;;5052465;28;20398;-79
2024/01/13 00:42:27;;;;;;;83.97;75.80;;;1.00;99.90;;;;;;5050910;28;20060;-72
2024/01/13 00:44:53;;;;;;;117.73;108.37;;;1.10;99.90;;;;;;5052358;28;20036;-72
2024/01/13 00:47:19;;;;;;;97.10;88.87;;;1.10;99.90;;;;;;5038434;28;20043;-69
2024/01/13 00:49:45;;;;;;;161.63;150.37;;;1.10;99.90;;;;;;5051890;28;20044;-70
2024/01/13 00:52:11;;;;;;;82.20;73.97;;;1.10;99.90;;;;;;5047140;28;20399;-70
2024/01/13 00:54:38;;;;;;;124.20;114.37;;;1.00;99.90;;;;;;5052136;28;20025;-70
2024/01/13 00:57:04;;;;;;;88.40;80.80;;;1.10;99.90;;;;;;5038688;28;20047;-70
2024/01/13 00:59:31;;;;;;;86.63;78.47;;;1.00;99.90;;;;;;5050837;28;20369;-69
2024/01/13 01:01:57;;;;;;;74.00;65.97;;;1.00;99.90;;;;;;5036362;28;20041;-69
2024/01/13 01:04:23;;;;;;;150.17;140.40;;;1.10;99.90;;;;;;5032084;28;20475;-69
2024/01/13 01:06:49;;;;;;;148.00;137.93;;;1.10;99.90;;;;;;5031581;28;20060;-69
2024/01/13 01:09:16;;;;;;;225.33;211.53;;;1.00;99.90;;;;;;5051050;28;20360;-69
2024/01/13 01:11:42;;;;;;;187.07;176.03;;;1.00;99.90;;;;;;5038690;28;20057;-69
2024/01/13 01:14:08;;;;;;;67.70;61.07;;;1.00;99.90;;;;;;5031203;28;20132;-70
2024/01/13 01:16:34;;;;;;;241.67;226.57;;;1.00;99.90;;;;;;5034691;28;20041;-69
2024/01/13 01:19:01;;;;;;;74.03;66.50;;;1.00;99.90;;;;;;5034554;28;20029;-70
2024/01/13 01:21:27;;;;;;;65.90;58.93;;;1.00;99.90;;;;;;5040860;28;20033;-70
2024/01/13 01:23:53;;;;;;;63.87;54.70;;;1.00;99.90;;;;;;5031991;28;20029;-69
2024/01/13 01:26:19;;;;;;;119.23;110.93;;;1.00;99.90;;;;;;5030442;28;20487;-69
2024/01/13 01:28:45;;;;;;;55.77;49.70;;;1.00;99.90;;;;;;5047959;28;20365;-69
2024/01/13 01:31:11;;;;;;;171.47;160.83;;;1.00;99.90;;;;;;5044852;28;20033;-69
2024/01/13 01:33:37;;;;;;;60.93;54.43;;;1.00;99.90;;;;;;5051677;28;20033;-70
2024/01/13 01:36:04;;;;;;;66.87;59.30;;;1.10;99.90;;;;;;5043857;28;20033;-69
2024/01/13 01:38:30;;;;;;;231.50;217.17;;;1.10;99.90;;;;;;5043932;28;20043;-70
2024/01/13 01:40:56;;;;;;;63.13;56.60;;;1.10;99.90;;;;;;5048841;28;20491;-70
2024/01/13 01:43:22;;;;;;;147.40;136.83;;;1.10;99.90;;;;;;5033744;28;20496;-70
2024/01/13 01:45:50;;;;;;;84.30;76.13;;;1.10;99.90;;;;;;5041917;28;20052;-69
2024/01/13 01:48:16;;;;;;;89.07;80.93;;;1.20;99.90;;;;;;5033271;28;20030;-70
2024/01/13 01:50:42;;;;;;;126.23;117.43;;;1.20;99.90;;;;;;5044498;28;20033;-69
2024/01/13 01:53:08;;;;;;;64.60;51.50;;;1.20;99.90;;;;;;5052933;28;20032;-69
2024/01/13 01:55:34;;;;;;;56.33;49.10;;;1.10;99.90;;;;;;5049491;28;20036;-69
2024/01/13 01:58:00;;;;;;;60.37;52.40;;;1.10;99.90;;;;;;5046436;28;20056;-69
2024/01/13 02:00:26;;;;;;;73.40;65.80;;;1.10;99.90;;;;;;5048943;28;20040;-69
2024/01/13 02:02:53;;;;;;;82.97;74.80;;;1.10;99.90;;;;;;5017205;28;20376;-69
2024/01/13 02:05:21;;;;;;;177.57;165.50;;;1.20;99.90;;;;;;5051824;28;20045;-69
2024/01/13 02:07:50;;;;;;;69.27;62.97;;;1.30;99.90;;;;;;5034038;28;20029;-70
2024/01/13 02:10:22;;;;;;;69.47;62.17;;;1.20;99.90;;;;;;5044044;28;20033;-70
2024/01/13 02:12:48;;;;;;;103.30;93.63;;;1.20;99.90;;;;;;5032499;28;20029;-69
2024/01/13 02:15:14;;;;;;;90.30;83.20;;;1.20;99.90;;;;;;5032565;28;20034;-70
2024/01/13 02:17:40;;;;;;;68.77;61.33;;;1.20;99.90;;;;;;5032434;28;20038;-69
2024/01/13 02:20:07;;;;;;;62.43;51.37;;;1.20;99.90;;;;;;5044777;28;20392;-70
2024/01/13 02:22:33;;;;;;;63.10;56.07;;;1.20;99.90;;;;;;5048637;28;20502;-70
2024/01/13 02:25:06;;;;;;;78.33;70.53;;;1.20;99.90;;;;;;5053549;28;20025;-70
2024/01/13 02:27:32;;;;;;;71.07;62.97;;;1.20;99.90;;;;;;5033728;28;20068;-70
2024/01/13 02:29:58;;;;;;;64.77;57.00;;;1.30;99.90;;;;;;5032972;28;20033;-69
2024/01/13 02:32:24;;;;;;;96.70;88.13;;;1.20;99.90;;;;;;5045638;28;20048;-70
2024/01/13 02:34:50;;;;;;;69.97;62.70;;;1.30;99.90;;;;;;5051932;28;20036;-70
2024/01/13 02:37:16;;;;;;;103.70;95.17;;;1.30;99.90;;;;;;5035074;28;20045;-69
2024/01/13 02:39:42;;;;;;;194.90;182.90;;;1.30;99.90;;;;;;5033468;28;20025;-69
2024/01/13 02:42:08;;;;;;;65.97;58.83;;;1.30;99.90;;;;;;4967275;28;2086209;-76
2024/01/13 02:44:35;;;;;;;163.70;151.93;;;1.30;99.90;;;;;;5054248;28;20040;-76
2024/01/13 02:47:01;;;;;;;62.40;55.63;;;1.30;99.90;;;;;;5038625;28;20073;-76
2024/01/13 02:49:27;;;;;;;69.77;62.30;;;1.30;99.90;;;;;;5052088;28;20033;-76
2024/01/13 02:51:53;;;;;;;60.97;53.27;;;1.30;99.90;;;;;;5040151;28;20033;-75
2024/01/13 02:54:19;;;;;;;161.53;150.53;;;1.30;99.90;;;;;;5034749;28;20029;-76
2024/01/13 02:56:48;;;;;;;66.03;58.87;;;1.20;99.90;;;;;;5034457;28;20391;-76
2024/01/13 02:59:14;;;;;;;79.77;72.00;;;1.30;99.90;;;;;;5049620;28;20029;-75
2024/01/13 03:01:40;;;;;;;174.53;162.77;;;1.30;99.90;;;;;;5052009;28;20052;-75
2024/01/13 03:04:06;;;;;;;87.23;80.03;;;1.30;99.90;;;;;;5045185;28;20036;-76
2024/01/13 03:06:32;;;;;;;89.60;81.23;;;1.20;99.90;;;;;;5040948;28;20056;-75
2024/01/13 03:08:59;;;;;;;67.20;60.33;;;1.20;99.90;;;;;;5053188;28;20025;-76
2024/01/13 03:11:25;;;;;;;85.23;76.90;;;1.20;99.90;;;;;;5051341;28;20041;-76
2024/01/13 03:13:51;;;;;;;79.57;72.13;;;1.20;99.90;;;;;;5052710;28;20479;-75
2024/01/13 03:16:17;;;;;;;207.17;195.33;;;1.30;99.90;;;;;;5052063;28;20044;-77
2024/01/13 03:18:43;;;;;;;65.07;58.97;;;1.20;99.90;;;;;;5053173;28;20387;-76
2024/01/13 03:21:10;;;;;;;106.10;97.57;;;1.20;99.90;;;;;;5048132;28;20036;-75
2024/01/13 03:23:36;;;;;;;53.33;48.57;;;1.20;99.90;;;;;;5052836;28;20056;-76
2024/01/13 03:26:02;;;;;;;69.07;61.93;;;1.10;99.90;;;;;;5052190;28;20068;-75
2024/01/13 03:28:28;;;;;;;59.63;54.23;;;1.10;99.90;;;;;;5052477;28;20040;-75
2024/01/13 03:30:54;;;;;;;73.17;65.30;;;1.20;99.90;;;;;;5049841;28;20037;-76
2024/01/13 03:33:20;;;;;;;60.87;54.57;;;1.20;99.90;;;;;;5072835;28;20028;-76
2024/01/13 03:35:47;;;;;;;73.43;66.93;;;1.20;99.90;;;;;;5067190;28;20033;-75
2024/01/13 03:38:13;;;;;;;99.17;90.73;;;1.10;99.90;;;;;;5053728;28;20029;-76
2024/01/13 03:40:39;;;;;;;60.70;54.33;;;1.10;99.90;;;;;;5053308;28;20025;-75
2024/01/13 03:43:05;;;;;;;62.10;56.63;;;1.10;99.90;;;;;;5053693;28;20052;-76
2024/01/13 03:45:31;;;;;;;88.53;80.77;;;1.10;99.90;;;;;;5052681;28;20041;-71
2024/01/13 03:47:57;;;;;;;57.70;53.43;;;1.10;99.90;;;;;;5052791;28;20037;-69
2024/01/13 03:50:24;;;;;;;93.80;86.60;;;1.10;99.90;;;;;;5049882;28;20360;-69
2024/01/13 03:52:50;;;;;;;87.87;81.07;;;1.10;99.90;;;;;;5049420;28;20049;-70
2024/01/13 03:55:16;;;;;;;82.77;75.07;;;1.10;99.90;;;;;;5051361;28;20021;-69
2024/01/13 03:57:42;;;;;;;84.33;77.07;;;1.00;99.90;;;;;;5039525;28;20139;-69
2024/01/13 04:00:09;;;;;;;53.03;47.83;;;1.00;99.90;;;;;;5051004;28;20391;-69
2024/01/13 04:02:35;;;;;;;63.30;57.87;;;1.00;99.90;;;;;;5033225;28;20500;-69
2024/01/13 04:05:01;;;;;;;119.20;109.37;;;1.00;99.90;;;;;;5033193;28;20029;-69
2024/01/13 04:07:27;;;;;;;109.47;99.63;;;1.10;99.90;;;;;;5040050;28;20045;-69
2024/01/13 04:09:53;;;;;;;121.60;110.97;;;1.20;99.90;;;;;;5052508;28;20040;-70
2024/01/13 04:12:21;;;;;;;84.20;78.40;;;1.20;99.90;;;;;;5048989;28;20033;-69
2024/01/13 04:14:47;;;;;;;74.43;69.23;;;1.20;99.90;;;;;;5052700;28;20099;-69
2024/01/13 04:17:13;;;;;;;65.83;53.43;;;1.20;99.90;;;;;;5047442;28;20044;-71
2024/01/13 04:19:39;;;;;;;78.20;65.50;;;1.10;99.90;;;;;;5052584;28;20056;-70
2024/01/13 04:22:05;;;;;;;67.90;56.80;;;1.20;99.90;;;;;;5047076;28;20048;-69
2024/01/13 04:24:31;;;;;;;64.90;53.33;;;1.10;99.90;;;;;;5051948;28;20055;-69
2024/01/13 04:26:57;;;;;;;74.27;67.20;;;1.10;99.90;;;;;;5037689;28;20040;-71
2024/01/13 04:29:23;;;;;;;74.70;67.27;;;1.20;99.90;;;;;;5037768;28;20491;-72
2024/01/13 04:31:49;;;;;;;81.53;72.40;;;1.20;99.90;;;;;;5047822;28;20128;-72
2024/01/13 04:34:15;;;;;;;75.50;67.63;;;1.10;99.90;;;;;;5052240;28;20029;-72
2024/01/13 04:36:41;;;;;;;85.63;78.77;;;1.10;99.90;;;;;;5039710;28;20036;-69
2024/01/13 04:39:07;;;;;;;79.97;66.37;;;1.10;99.90;;;;;;5032298;28;20026;-69
2024/01/13 04:41:33;;;;;;;77.73;70.30;;;1.10;99.90;;;;;;5032351;28;20033;-69
2024/01/13 04:43:59;;;;;;;92.13;85.90;;;1.10;99.90;;;;;;5031928;28;20045;-69
2024/01/13 04:46:26;;;;;;;73.80;61.17;;;1.10;99.90;;;;;;5032593;28;20053;-69
2024/01/13 04:48:52;;;;;;;76.90;67.70;;;1.00;99.90;;;;;;5052165;28;20498;-69
2024/01/13 04:51:18;;;;;;;84.23;76.30;;;1.00;99.90;;;;;;5047415;28;20028;-69
2024/01/13 04:53:44;;;;;;;89.17;80.83;;;1.00;99.90;;;;;;5052079;28;20033;-69
2024/01/13 04:56:10;;;;;;;124.73;113.20;;;1.00;99.90;;;;;;5043600;28;20033;-69
2024/01/13 04:58:36;;;;;;;81.93;75.77;;;1.10;99.90;;;;;;5040680;28;20084;-69
2024/01/13 05:01:02;;;;;;;122.30;111.37;;;1.00;99.90;;;;;;5044279;28;20033;-69
2024/01/13 05:03:28;;;;;;;85.77;71.27;;;1.00;99.90;;;;;;5031107;28;20040;-81
2024/01/13 05:05:54;;;;;;;59.03;53.03;;;1.10;99.90;;;;;;5030827;28;20383;-80
2024/01/13 05:08:20;;;;;;;83.70;75.30;;;1.10;99.90;;;;;;5030126;28;20492;-81
2024/01/13 05:10:46;;;;;;;77.83;71.87;;;1.00;99.90;;;;;;5045571;28;20029;-80
2024/01/13 05:13:13;;;;;;;92.43;83.63;;;1.00;99.90;;;;;;5034228;28;20025;-80
2024/01/13 05:15:39;;;;;;;128.93;117.60;;;1.00;99.90;;;;;;5047073;28;20413;-80
2024/01/13 05:18:05;;;;;;;106.10;95.83;;;1.00;99.90;;;;;;5036040;28;20021;-80
2024/01/13 05:20:31;;;;;;;132.03;121.03;;;1.10;99.90;;;;;;5048848;28;20033;-80
2024/01/13 05:22:57;;;;;;;156.77;143.90;;;1.10;99.90;;;;;;5031865;28;20500;-81
2024/01/13 05:25:23;;;;;;;116.10;105.77;;;1.20;99.90;;;;;;5031646;28;20029;-81
2024/01/13 05:27:50;;;;;;;125.03;76.80;;;1.20;99.90;;;;;;5036842;28;20472;-79
2024/01/13 05:30:16;;;;;;;84.23;67.27;;;1.20;99.90;;;;;;5048374;28;20036;-81
2024/01/13 05:32:42;;;;;;;82.33;59.73;;;1.20;99.90;;;;;;5048716;28;20032;-81
2024/01/13 05:35:08;;;;;;;87.03;71.20;;;1.20;99.90;;;;;;5052018;28;20032;-80
2024/01/13 05:37:34;;;;;;;65.87;59.13;;;1.30;99.90;;;;;;5050144;28;20041;-81
2024/01/13 05:40:01;;;;;;;108.43;97.87;;;1.40;99.90;;;;;;5033845;28;20053;-81
2024/01/13 05:42:27;;;;;;;77.03;66.57;;;1.30;99.90;;;;;;5050466;28;20045;-80
2024/01/13 05:44:53;;;;;;;74.20;50.53;;;1.20;99.90;;;;;;5052395;28;20036;-80
2024/01/13 05:47:19;;;;;;;68.40;55.13;;;1.20;99.90;;;;;;5050850;28;20052;-81
2024/01/13 05:49:45;;;;;;;78.40;62.90;;;1.20;99.90;;;;;;5051692;28;20029;-81
2024/01/13 05:52:11;;;;;;;78.37;60.50;;;1.10;99.90;;;;;;5048640;28;20056;-81
2024/01/13 05:54:40;;;;;;;72.53;52.87;;;1.10;99.90;;;;;;5050812;28;20084;-81
2024/01/13 05:57:06;;;;;;;76.50;58.47;;;1.10;99.90;;;;;;5049909;28;20037;-81
2024/01/13 05:59:32;;;;;;;60.63;54.20;;;1.10;99.90;;;;;;5051386;28;20025;-81
2024/01/13 06:01:58;;;;;;;78.43;68.33;;;1.00;99.90;;;;;;5032085;28;20040;-75
2024/01/13 06:04:24;;;;;;;61.27;55.57;;;1.00;99.90;;;;;;5051339;28;20056;-81
2024/01/13 06:06:50;;;;;;;64.10;59.73;;;1.00;99.90;;;;;;5050748;28;20041;-71
2024/01/13 06:09:16;;;;;;;72.00;56.20;;;0.90;99.90;;;;;;5051142;28;20032;-73
2024/01/13 06:11:43;;;;;;;72.07;62.13;;;0.90;99.90;;;;;;5050097;28;20104;-69
2024/01/13 06:14:09;;;;;;;62.13;49.83;;;0.90;99.90;;;;;;5050785;28;20033;-70
2024/01/13 06:16:35;;;;;;;56.63;49.80;;;0.90;99.90;;;;;;5038758;28;20048;-69
2024/01/13 06:19:02;;;;;;;65.07;47.07;;;0.80;99.90;;;;;;5049619;28;20040;-71
2024/01/13 06:21:28;;;;;;;67.93;52.10;;;0.80;99.90;;;;;;5042482;28;20044;-72
2024/01/13 06:23:56;;;;;;;76.87;70.47;;;0.80;99.90;;;;;;5052859;28;20029;-69
2024/01/13 06:26:22;;;;;;;61.57;54.83;;;0.90;99.90;;;;;;5053131;28;20099;-70
2024/01/13 06:28:48;;;;;;;67.70;50.03;;;0.80;99.90;;;;;;5054421;28;20037;-69
2024/01/13 06:31:14;;;;;;;84.90;78.53;;;0.80;99.90;;;;;;5050040;28;20052;-70
2024/01/13 06:33:40;;;;;;;70.10;53.10;;;0.80;99.90;;;;;;5052507;28;20103;-70
2024/01/13 06:36:07;;;;;;;65.37;59.37;;;0.80;99.90;;;;;;5046176;28;20033;-70
2024/01/13 06:38:33;;;;;;;56.27;48.17;;;0.80;99.90;;;;;;5034156;28;20037;-69
2024/01/13 06:40:59;;;;;;;150.07;138.23;;;0.70;99.90;;;;;;5034402;28;20056;-70
2024/01/13 06:43:25;;;;;;;98.10;88.67;;;0.70;99.90;;;;;;5039599;28;20049;-70
2024/01/13 06:45:51;;;;;;;191.50;165.70;;;0.80;99.90;;;;;;5048073;28;20029;-69
2024/01/13 06:48:17;;;;;;;104.37;94.53;;;0.90;99.90;;;;;;5045499;28;20466;-70
2024/01/13 06:50:43;;;;;;;95.47;87.10;;;1.00;99.90;;;;;;5048983;28;20030;-70
2024/01/13 06:53:09;;;;;;;93.07;84.83;;;0.90;99.90;;;;;;5053861;28;20483;-72
2024/01/13 06:55:35;;;;;;;83.97;77.07;;;0.80;99.90;;;;;;5050192;28;20032;-71
2024/01/13 06:58:01;;;;;;;162.30;131.33;;;0.80;99.90;;;;;;5035170;28;20040;-70
2024/01/13 07:00:27;;;;;;;101.37;91.57;;;0.70;99.90;;;;;;5049304;28;20506;-69
2024/01/13 07:02:53;;;;;;;103.73;95.40;;;0.90;99.90;;;;;;5053804;28;20026;-71
2024/01/13 07:05:20;;;;;;;141.90;130.50;;;0.80;99.90;;;;;;5048475;28;20056;-71
2024/01/13 07:07:46;;;;;;;53.40;48.60;;;0.80;99.90;;;;;;5046404;28;20037;-72
2024/01/13 07:10:12;;;;;;;136.20;125.27;;;0.70;99.90;;;;;;5052735;28;20037;-70
2024/01/13 07:12:38;;;;;;;141.40;130.17;;;0.70;99.90;;;;;;5053792;28;20033;-72
2024/01/13 07:15:05;;;;;;;89.27;81.30;;;0.70;99.90;;;;;;5052495;28;20550;-72
2024/01/13 07:17:31;;;;;;;71.30;64.03;;;0.70;99.90;;;;;;5034060;28;20033;-72
2024/01/13 07:19:58;;;;;;;52.00;46.23;;;0.70;99.90;;;;;;5043013;28;20086;-72
2024/01/13 07:22:24;;;;;;;59.33;54.00;;;0.70;99.90;;;;;;5034916;28;20043;-71
2024/01/13 07:24:50;;;;;;;114.80;104.53;;;0.60;99.90;;;;;;5033826;28;20033;-72
2024/01/13 07:27:16;;;;;;;227.80;211.40;;;0.70;99.90;;;;;;5033060;28;20057;-71
2024/01/13 07:29:42;;;;;;;241.80;224.27;;;0.80;99.90;;;;;;5033961;28;20030;-72
2024/01/13 07:32:08;;;;;;;108.03;97.87;;;0.90;99.90;;;;;;5050885;28;20056;-72
2024/01/13 07:34:34;;;;;;;202.43;187.57;;;0.80;99.90;;;;;;5052380;28;20025;-72
2024/01/13 07:37:00;;;;;;;116.97;107.60;;;0.70;99.90;;;;;;5053969;28;20044;-72
2024/01/13 07:39:26;;;;;;;141.47;129.83;;;0.80;99.90;;;;;;5053926;28;20056;-72
2024/01/13 07:41:52;;;;;;;203.63;189.23;;;0.80;99.90;;;;;;5053489;28;20029;-72
2024/01/13 07:44:19;;;;;;;175.50;162.03;;;0.80;99.90;;;;;;5053852;28;20029;-72
2024/01/13 07:46:45;;;;;;;72.70;66.20;;;0.80;99.90;;;;;;5041655;28;20045;-72
2024/01/13 07:49:11;;;;;;;178.80;165.83;;;0.80;99.90;;;;;;5050764;28;20722;-72
2024/01/13 07:51:37;;;;;;;75.43;68.40;;;0.70;99.90;;;;;;5052281;28;20033;-72
2024/01/13 07:54:03;;;;;;;146.03;133.70;;;0.70;99.90;;;;;;5053332;28;20468;-72
2024/01/13 07:56:29;;;;;;;153.27;141.10;;;0.80;99.90;;;;;;5053418;28;20036;-71
2024/01/13 07:58:55;;;;;;;175.87;163.00;;;0.70;99.90;;;;;;5053305;28;20451;-72
2024/01/13 08:01:21;;;;;;;113.57;103.57;;;0.80;99.90;;;;;;5053036;28;20048;-82
2024/01/13 08:03:47;;;;;;;79.20;72.80;;;0.70;99.90;;;;;;5050129;28;20033;-82
2024/01/13 08:06:13;;;;;;;79.43;71.73;;;0.60;99.90;;;;;;5050942;28;20384;-82
2024/01/13 08:08:40;;;;;;;53.23;47.77;;;0.60;99.90;;;;;;5053060;28;20703;-82
2024/01/13 08:11:06;;;;;;;58.17;43.57;;;0.60;99.90;;;;;;5052579;28;20040;-83
2024/01/13 08:13:32;;;;;;;89.27;82.13;;;0.60;99.90;;;;;;5053200;28;20040;-82
2024/01/13 08:15:58;;;;;;;71.53;64.77;;;0.60;99.90;;;;;;5052570;28;20399;-82
2024/01/13 08:18:24;;;;;;;61.30;55.80;;;0.60;99.90;;;;;;5052732;28;20040;-82
2024/01/13 08:20:51;;;;;;;101.30;93.03;;;0.60;99.90;;;;;;5052796;28;20028;-83
2024/01/13 08:23:18;;;;;;;70.87;65.20;;;0.60;99.90;;;;;;5050981;28;20574;-84
2024/01/13 08:25:44;;;;;;;63.80;57.13;;;0.60;99.90;;;;;;5052974;28;20431;-83
2024/01/13 08:28:10;;;;;;;96.03;87.80;;;0.60;99.90;;;;;;5052585;28;20047;-84
2024/01/13 08:30:37;;;;;;;84.60;76.60;;;0.70;99.90;;;;;;5045223;28;20032;-83
2024/01/13 08:33:04;;;;;;;81.87;74.47;;;0.60;99.90;;;;;;5043831;28;20056;-84
2024/01/13 08:35:30;;;;;;;65.87;59.20;;;0.60;99.90;;;;;;5052369;28;20029;-83
2024/01/13 08:37:56;;;;;;;67.03;62.43;;;0.60;99.90;;;;;;5051000;28;20033;-83
2024/01/13 08:40:23;;;;;;;50.83;46.50;;;0.60;99.90;;;;;;5052113;28;20033;-83
2024/01/13 08:42:49;;;;;;;72.17;66.90;;;0.60;99.90;;;;;;5032475;28;20041;-82
2024/01/13 08:45:18;;;;;;;74.23;68.47;;;0.50;99.90;;;;;;5046326;28;20487;-82
2024/01/13 08:47:44;;;;;;;49.43;45.83;;;0.50;99.90;;;;;;5052140;28;20064;-81
2024/01/13 08:50:10;;;;;;;72.20;64.50;;;0.50;99.90;;;;;;5050758;28;20025;-82
2024/01/13 08:52:36;;;;;;;111.93;103.67;;;0.60;99.90;;;;;;5032512;28;20029;-82
2024/01/13 08:55:02;;;;;;;53.17;42.37;;;0.60;99.90;;;;;;5050844;28;20490;-82
2024/01/13 08:57:28;;;;;;;54.40;45.20;;;0.50;99.90;;;;;;5033439;28;20472;-81
2024/01/13 08:59:54;;;;;;;60.40;53.50;;;0.50;99.90;;;;;;5041639;28;20028;-81
2024/01/13 09:02:20;;;;;;;65.00;58.73;;;0.50;99.90;;;;;;5048455;28;20047;-72
2024/01/13 09:04:46;;;;;;;58.37;48.37;;;0.60;99.90;;;;;;5050125;28;20024;-70
2024/01/13 09:07:12;;;;;;;65.30;58.30;;;0.50;99.90;;;;;;5047587;28;20112;-70
2024/01/13 09:09:38;;;;;;;89.47;82.13;;;0.60;99.90;;;;;;5050217;28;20041;-71
2024/01/13 09:12:05;;;;;;;178.93;166.77;;;0.50;99.90;;;;;;5050643;28;20452;-70
2024/01/13 09:14:31;;;;;;;150.07;139.60;;;0.50;99.90;;;;;;5050546;28;20048;-70
2024/01/13 09:16:57;;;;;;;76.97;69.83;;;0.50;99.90;;;;;;5050357;28;20472;-70
2024/01/13 09:19:23;;;;;;;80.23;72.30;;;0.80;99.90;;;;;;5051126;28;20403;-70
2024/01/13 09:21:50;;;;;;;66.80;59.97;;;0.80;99.90;;;;;;5048946;28;20085;-71
2024/01/13 09:24:16;;;;;;;129.60;119.43;;;0.70;99.90;;;;;;5050523;28;20055;-71
2024/01/13 09:26:43;;;;;;;66.17;58.67;;;0.70;99.90;;;;;;5050363;28;20048;-71
2024/01/13 09:29:09;;;;;;;65.73;52.30;;;0.70;99.90;;;;;;5051385;28;20044;-70
2024/01/13 09:31:35;;;;;;;76.27;63.80;;;0.80;99.90;;;;;;5050634;28;20041;-71
2024/01/13 09:34:01;;;;;;;111.47;103.30;;;0.80;99.90;;;;;;5051646;28;20052;-71
2024/01/13 09:36:27;;;;;;;65.10;57.50;;;0.70;99.90;;;;;;5051185;28;20029;-71
2024/01/13 09:38:54;;;;;;;66.37;54.43;;;0.80;99.90;;;;;;5049162;28;20396;-70
2024/01/13 09:41:20;;;;;;;90.53;81.20;;;0.80;99.90;;;;;;5049177;28;20041;-70
2024/01/13 09:44:02;;;;;;;67.60;52.30;;;0.70;99.90;;;;;;5051098;28;20476;-71
2024/01/13 09:46:29;;;;;;;69.93;52.43;;;0.70;99.90;;;;;;5049997;28;20033;-71
2024/01/13 09:48:55;;;;;;;111.03;100.97;;;0.80;99.90;;;;;;5032609;28;20401;-71
2024/01/13 09:51:24;;;;;;;143.13;131.73;;;0.80;99.90;;;;;;5029479;28;20036;-71
2024/01/13 09:53:58;;;;;;;70.00;63.67;;;0.80;99.90;;;;;;5049256;28;20036;-71
2024/01/13 09:56:31;;;;;;;66.97;61.43;;;0.80;99.90;;;;;;5033203;28;20388;-71
2024/01/13 09:58:57;;;;;;;55.37;49.93;;;0.80;99.90;;;;;;5048539;28;20036;-71
2024/01/13 10:01:23;;;;;;;55.60;46.67;;;0.70;99.90;;;;;;5043578;28;20040;-71
2024/01/13 10:03:50;;;;;;;51.37;38.83;;;0.70;99.90;;;;;;5035430;28;20483;-71
2024/01/13 10:06:16;;;;;;;49.80;44.10;;;0.70;99.90;;;;;;5044193;28;20025;-72
2024/01/13 10:08:42;;;;;;;93.27;86.53;;;0.70;99.90;;;;;;5047477;28;20072;-72
2024/01/13 10:11:08;;;;;;;59.33;54.37;;;0.80;99.90;;;;;;5042840;28;20467;-71
2024/01/13 10:13:35;;;;;;;66.80;61.10;;;0.90;99.90;;;;;;5054796;28;20033;-72
2024/01/13 10:16:02;;;;;;;55.93;51.43;;;0.90;99.90;;;;;;5046467;28;20030;-72
2024/01/13 10:18:28;;;;;;;72.70;66.67;;;0.90;99.90;;;;;;5034112;28;20029;-71
2024/01/13 10:20:54;;;;;;;75.27;68.93;;;0.90;99.90;;;;;;5017134;28;20483;-71
2024/01/13 10:23:22;;;;;;;44.53;39.37;;;0.80;99.90;;;;;;5017398;28;20034;-71
2024/01/13 10:25:49;;;;;;;52.10;46.73;;;0.70;99.90;;;;;;5034557;28;20044;-71
2024/01/13 10:28:15;;;;;;;68.43;62.50;;;0.70;99.90;;;;;;5019982;28;20033;-71
2024/01/13 10:30:41;;;;;;;67.90;61.80;;;0.80;99.90;;;;;;5035898;28;20029;-72
2024/01/13 10:33:11;;;;;;;63.13;58.77;;;0.80;99.90;;;;;;5054924;28;20033;-71
2024/01/13 10:35:37;;;;;;;67.00;61.03;;;0.80;99.90;;;;;;5050916;28;20028;-72
2024/01/13 10:38:03;;;;;;;67.17;62.50;;;0.80;99.90;;;;;;5034856;28;20025;-71
2024/01/13 10:40:29;;;;;;;55.50;50.53;;;0.80;99.90;;;;;;5039254;28;20495;-71
2024/01/13 10:42:55;;;;;;;78.73;72.57;;;0.80;99.90;;;;;;5052948;28;20045;-71
2024/01/13 10:45:24;;;;;;;76.37;70.07;;;0.80;99.90;;;;;;5034309;28;20049;-71
2024/01/13 10:47:56;;;;;;;57.77;53.47;;;0.80;99.90;;;;;;5053789;28;20483;-77
2024/01/13 10:50:22;;;;;;;97.23;91.30;;;1.00;99.90;;;;;;5036650;28;20029;-79
2024/01/13 10:52:55;;;;;;;112.13;104.57;;;1.00;99.90;;;;;;5049078;28;20029;-81
2024/01/13 10:55:21;;;;;;;127.13;118.60;;;0.90;99.90;;;;;;5051799;28;20518;-80
2024/01/13 10:57:47;;;;;;;51.67;47.33;;;0.90;99.90;;;;;;5052733;28;20048;-81
2024/01/13 11:00:14;;;;;;;58.00;53.53;;;1.00;99.90;;;;;;5050763;28;20041;-81
2024/01/13 11:02:43;;;;;;;62.90;58.27;;;0.90;99.90;;;;;;5035586;28;20060;-80
2024/01/13 11:05:10;;;;;;;135.73;126.67;;;0.90;99.90;;;;;;5053704;28;20033;-80
2024/01/13 11:07:37;;;;;;;45.83;42.20;;;0.90;99.90;;;;;;5050099;28;20045;-80
2024/01/13 11:10:05;;;;;;;122.43;114.40;;;0.80;99.90;;;;;;5052743;28;20052;-79
2024/01/13 11:12:38;;;;;;;92.83;85.90;;;0.90;99.90;;;;;;5035240;28;20047;-79
2024/01/13 11:15:16;;;;;;;47.03;42.87;;;0.90;99.90;;;;;;5030730;28;20025;-81
2024/01/13 11:17:42;;;;;;;115.27;107.53;;;0.90;99.90;;;;;;5035507;28;20055;-79
2024/01/13 11:20:11;;;;;;;71.47;65.97;;;1.00;99.90;;;;;;5035325;28;20040;-78
2024/01/13 11:22:39;;;;;;;51.17;46.93;;;1.00;99.90;;;;;;5052154;28;20505;-79
2024/01/13 11:25:22;;;;;;;93.80;86.77;;;0.90;99.90;;;;;;5051084;28;20091;-79
2024/01/13 11:27:59;;;;;;;117.97;110.63;;;0.80;99.90;;;;;;5020547;28;20049;-79
2024/01/13 11:30:38;;;;;;;60.50;56.13;;;0.90;99.90;;;;;;5018362;28;20506;-79
2024/01/13 11:33:13;;;;;;;41.80;38.90;;;0.80;99.90;;;;;;5033449;28;20045;-79
2024/01/13 11:35:40;;;;;;;62.83;58.53;;;0.80;99.90;;;;;;5049922;28;20033;-79
2024/01/13 11:38:06;;;;;;;83.80;78.43;;;0.80;99.90;;;;;;5053803;28;20375;-79
2024/01/13 11:40:32;;;;;;;82.47;76.47;;;0.80;99.90;;;;;;5050459;28;21007;-77
2024/01/13 11:43:00;;;;;;;153.97;144.80;;;0.80;99.90;;;;;;5052969;28;20045;-79
2024/01/13 11:45:40;;;;;;;101.50;94.47;;;0.90;99.90;;;;;;5051668;28;20396;-79
2024/01/13 11:48:30;;;;;;;138.97;129.77;;;0.90;99.90;;;;;;5052780;28;20041;-79
2024/01/13 11:50:56;;;;;;;139.85;130.52;;;0.90;99.90;;;;;;5052393;28;20041;-72
2024/01/13 11:53:33;;;;;;;151.80;142.27;;;0.90;99.90;;;;;;5051910;28;20044;-70
2024/01/13 11:55:59;;;;;;;108.00;101.03;;;1.00;99.90;;;;;;5050776;28;20044;-70
2024/01/13 11:58:26;;;;;;;173.27;161.90;;;1.10;99.90;;;;;;5051655;28;20029;-70
2024/01/13 12:00:52;;;;;;;156.83;147.10;;;1.10;99.90;;;;;;5050287;28;20036;-70
2024/01/13 12:03:18;;;;;;;99.17;93.57;;;1.20;99.90;;;;;;5035251;28;20502;-73
2024/01/13 12:05:44;;;;;;;48.93;45.03;;;1.20;99.90;;;;;;5051043;28;20036;-72
2024/01/13 12:08:10;;;;;;;127.83;119.90;;;1.20;99.90;;;;;;5050599;28;20048;-72
2024/01/13 12:10:43;;;;;;;138.73;130.37;;;1.20;99.90;;;;;;5033886;28;20036;-72
2024/01/13 12:13:18;;;;;;;165.27;155.57;;;1.20;99.90;;;;;;5052540;28;20025;-72
2024/01/13 12:15:47;;;;;;;122.97;115.10;;;1.20;99.90;;;;;;5051265;28;20044;-70
2024/01/13 12:18:25;;;;;;;94.33;88.13;;;1.30;99.90;;;;;;5052318;28;20025;-71
2024/01/13 12:21:03;;;;;;;62.97;59.27;;;1.20;99.90;;;;;;5049324;28;20056;-70
2024/01/13 12:23:29;;;;;;;114.07;107.20;;;1.20;99.90;;;;;;5051937;28;20765;-70
2024/01/13 12:25:55;;;;;;;139.83;131.63;;;1.30;99.90;;;;;;5051550;28;20041;-70
2024/01/13 12:28:21;;;;;;;56.97;52.90;;;1.30;99.90;;;;;;5051659;28;20041;-70